Currituck — AEFR — position and weather

sailwx.info

Track history (hours):
 
Tides and Currents Weather Stations Pressure Air Temp Water Temp Dewpoint Dewpoint Depression Visibility Wind Speed Wind Dir Waves Ship Positions

Currituck

Last reported at 2017-Dec-11 11:11 UTC. Time now 2017-Dec-14 17:19 UTC.
Position N 34°14' W 077°57'.

Length 45 m; draft 2 m.

Type: Dredging. MMSI: 369970446.

Date/timePositionNaut miles runAvg speedWind from/ knotsBaromVisibWave heightAir tempDewpointWater temp
2017-Dec-11 11:11N 34°14' W 077°57'0 0.0
2017-Dec-11 10:59N 34°14' W 077°57'0 0.0
2017-Dec-11 05:36N 34°14' W 077°57'0 0.0
2017-Dec-11 05:26N 34°14' W 077°57'0 0.0
2017-Dec-11 04:59N 34°14' W 077°57'0 0.0
2017-Dec-11 04:18N 34°14' W 077°57'0 0.0
2017-Dec-11 04:00N 34°14' W 077°57'0 0.0
2017-Dec-11 03:29N 34°14' W 077°57'0 0.0
2017-Dec-11 02:58N 34°14' W 077°57'0 0.0
2017-Dec-11 02:24N 34°14' W 077°57'0 0.0
2017-Dec-11 00:07N 34°14' W 077°57'0 0.0
2017-Dec-10 23:58N 34°14' W 077°57'0 0.0
2017-Dec-10 23:28N 34°14' W 077°57'0 0.0
2017-Dec-10 23:00N 34°14' W 077°57'0 0.0
2017-Dec-10 22:28N 34°14' W 077°57'0 0.0
2017-Dec-10 16:50N 34°14' W 077°57'0 0.0
2017-Dec-10 15:26N 34°14' W 077°57'0 0.0
2017-Dec-10 14:58N 34°14' W 077°57'0 0.0
2017-Dec-10 13:56N 34°14' W 077°57'0 0.0
2017-Dec-10 13:29N 34°14' W 077°57'0 0.0
2017-Dec-10 12:52N 34°14' W 077°57'0 0.0
2017-Dec-10 12:29N 34°14' W 077°57'0 0.0
2017-Dec-10 11:58N 34°14' W 077°57'0 0.0
2017-Dec-10 11:30N 34°14' W 077°57'0 0.0
2017-Dec-10 10:57N 34°14' W 077°57'0 0.0
2017-Dec-10 10:29N 34°14' W 077°57'0 0.0
2017-Dec-10 10:00N 34°14' W 077°57'0 0.0
2017-Dec-10 09:30N 34°14' W 077°57'0 0.0
2017-Dec-10 09:00N 34°14' W 077°57'0 0.0
2017-Dec-10 08:30N 34°14' W 077°57'0 0.0
2017-Dec-10 08:00N 34°14' W 077°57'0 0.0
2017-Dec-10 07:30N 34°14' W 077°57'0 0.0
2017-Dec-10 07:00N 34°14' W 077°57'0 0.0
2017-Dec-10 06:30N 34°14' W 077°57'0 0.0
2017-Dec-10 06:00N 34°14' W 077°57'0 0.0
2017-Dec-10 05:30N 34°14' W 077°57'0 0.0
2017-Dec-10 05:00N 34°14' W 077°57'0 0.0
2017-Dec-10 04:30N 34°14' W 077°57'0 0.0
2017-Dec-10 04:00N 34°14' W 077°57'0 0.0
2017-Dec-10 03:30N 34°14' W 077°57'0 0.0
2017-Dec-10 02:57N 34°14' W 077°57'0 0.0
2017-Dec-10 02:29N 34°14' W 077°57'0 0.0
2017-Dec-10 01:59N 34°14' W 077°57'0 0.0
2017-Dec-10 01:30N 34°14' W 077°57'0 0.0
2017-Dec-10 01:00N 34°14' W 077°57'0 0.0
2017-Dec-10 00:29N 34°14' W 077°57'0 0.0
2017-Dec-09 23:54N 34°14' W 077°57'0 0.0
2017-Dec-09 23:25N 34°14' W 077°57'0 0.0
2017-Dec-09 22:59N 34°14' W 077°57'0 0.0
2017-Dec-09 22:28N 34°14' W 077°57'0 0.0
2017-Dec-09 21:51N 34°14' W 077°57'0 0.0
2017-Dec-09 21:30N 34°14' W 077°57'0 0.0
2017-Dec-09 21:00N 34°14' W 077°57'0 0.0
2017-Dec-09 20:30N 34°14' W 077°57'0 0.0
2017-Dec-09 20:00N 34°14' W 077°57'0 0.0
2017-Dec-09 19:30N 34°14' W 077°57'0 0.0
2017-Dec-09 18:58N 34°14' W 077°57'0 0.0
2017-Dec-09 18:30N 34°14' W 077°57'0 0.0
2017-Dec-09 18:00N 34°14' W 077°57'0 0.0
2017-Dec-09 17:30N 34°14' W 077°57'0 0.0
2017-Dec-09 17:00N 34°14' W 077°57'0 0.0
2017-Dec-09 16:30N 34°14' W 077°57'0 0.0
2017-Dec-09 15:57N 34°14' W 077°57'58 1.7
2017-Dec-08 04:51N 34°43' W 076°56'3 7.3
2017-Dec-08 04:30N 34°43' W 076°53'4 7.7
2017-Dec-08 04:00N 34°43' W 076°48'4 8.8
2017-Dec-08 03:30N 34°43' W 076°43'1 1.9
2017-Dec-08 03:00N 34°43' W 076°42'0 0.0
2017-Dec-08 02:30N 34°43' W 076°42'0 0.0
2017-Dec-08 02:00N 34°43' W 076°42'0 0.0
2017-Dec-08 01:30N 34°43' W 076°42'0 0.0
2017-Dec-08 01:00N 34°43' W 076°42'0 0.0
2017-Dec-08 00:30N 34°43' W 076°42'0 0.8
2017-Dec-08 00:01N 34°43' W 076°42'3 6.9
2017-Dec-07 23:30N 34°47' W 076°41'4 8.9
2017-Dec-07 23:00N 34°51' W 076°41'4 8.3
2017-Dec-07 22:30N 34°55' W 076°40'  
Track history (hours):
 
Tides and Currents Weather Stations Pressure Air Temp Water Temp Dewpoint Dewpoint Depression Visibility Wind Speed Wind Dir Waves Ship Positions

Currituck

Last reported at 2017-Dec-11 11:11 UTC. Time now 2017-Dec-14 17:19 UTC.
Position N 34°14' W 077°57'.

Length 45 m; draft 2 m.

Type: Dredging. MMSI: 369970446.

Date/timePositionNaut miles runAvg speedWind from/ knotsBaromVisibWave heightAir tempDewpointWater temp
2017-Dec-11 11:11N 34°14' W 077°57'0 0.0
2017-Dec-11 10:59N 34°14' W 077°57'0 0.0
2017-Dec-11 05:36N 34°14' W 077°57'0 0.0
2017-Dec-11 05:26N 34°14' W 077°57'0 0.0
2017-Dec-11 04:59N 34°14' W 077°57'0 0.0
2017-Dec-11 04:18N 34°14' W 077°57'0 0.0
2017-Dec-11 04:00N 34°14' W 077°57'0 0.0
2017-Dec-11 03:29N 34°14' W 077°57'0 0.0
2017-Dec-11 02:58N 34°14' W 077°57'0 0.0
2017-Dec-11 02:24N 34°14' W 077°57'0 0.0
2017-Dec-11 00:07N 34°14' W 077°57'0 0.0
2017-Dec-10 23:58N 34°14' W 077°57'0 0.0
2017-Dec-10 23:28N 34°14' W 077°57'0 0.0
2017-Dec-10 23:00N 34°14' W 077°57'0 0.0
2017-Dec-10 22:28N 34°14' W 077°57'0 0.0
2017-Dec-10 16:50N 34°14' W 077°57'0 0.0
2017-Dec-10 15:26N 34°14' W 077°57'0 0.0
2017-Dec-10 14:58N 34°14' W 077°57'0 0.0
2017-Dec-10 13:56N 34°14' W 077°57'0 0.0
2017-Dec-10 13:29N 34°14' W 077°57'0 0.0
2017-Dec-10 12:52N 34°14' W 077°57'0 0.0
2017-Dec-10 12:29N 34°14' W 077°57'0 0.0
2017-Dec-10 11:58N 34°14' W 077°57'0 0.0
2017-Dec-10 11:30N 34°14' W 077°57'0 0.0
2017-Dec-10 10:57N 34°14' W 077°57'0 0.0
2017-Dec-10 10:29N 34°14' W 077°57'0 0.0
2017-Dec-10 10:00N 34°14' W 077°57'0 0.0
2017-Dec-10 09:30N 34°14' W 077°57'0 0.0
2017-Dec-10 09:00N 34°14' W 077°57'0 0.0
2017-Dec-10 08:30N 34°14' W 077°57'0 0.0
2017-Dec-10 08:00N 34°14' W 077°57'0 0.0
2017-Dec-10 07:30N 34°14' W 077°57'0 0.0
2017-Dec-10 07:00N 34°14' W 077°57'0 0.0
2017-Dec-10 06:30N 34°14' W 077°57'0 0.0
2017-Dec-10 06:00N 34°14' W 077°57'0 0.0
2017-Dec-10 05:30N 34°14' W 077°57'0 0.0
2017-Dec-10 05:00N 34°14' W 077°57'0 0.0
2017-Dec-10 04:30N 34°14' W 077°57'0 0.0
2017-Dec-10 04:00N 34°14' W 077°57'0 0.0
2017-Dec-10 03:30N 34°14' W 077°57'0 0.0
2017-Dec-10 02:57N 34°14' W 077°57'0 0.0
2017-Dec-10 02:29N 34°14' W 077°57'0 0.0
2017-Dec-10 01:59N 34°14' W 077°57'0 0.0
2017-Dec-10 01:30N 34°14' W 077°57'0 0.0
2017-Dec-10 01:00N 34°14' W 077°57'0 0.0
2017-Dec-10 00:29N 34°14' W 077°57'0 0.0
2017-Dec-09 23:54N 34°14' W 077°57'0 0.0
2017-Dec-09 23:25N 34°14' W 077°57'0 0.0
2017-Dec-09 22:59N 34°14' W 077°57'0 0.0
2017-Dec-09 22:28N 34°14' W 077°57'0 0.0
2017-Dec-09 21:51N 34°14' W 077°57'0 0.0
2017-Dec-09 21:30N 34°14' W 077°57'0 0.0
2017-Dec-09 21:00N 34°14' W 077°57'0 0.0
2017-Dec-09 20:30N 34°14' W 077°57'0 0.0
2017-Dec-09 20:00N 34°14' W 077°57'0 0.0
2017-Dec-09 19:30N 34°14' W 077°57'0 0.0
2017-Dec-09 18:58N 34°14' W 077°57'0 0.0
2017-Dec-09 18:30N 34°14' W 077°57'0 0.0
2017-Dec-09 18:00N 34°14' W 077°57'0 0.0
2017-Dec-09 17:30N 34°14' W 077°57'0 0.0
2017-Dec-09 17:00N 34°14' W 077°57'0 0.0
2017-Dec-09 16:30N 34°14' W 077°57'0 0.0
2017-Dec-09 15:57N 34°14' W 077°57'58 1.7
2017-Dec-08 04:51N 34°43' W 076°56'3 7.3
2017-Dec-08 04:30N 34°43' W 076°53'4 7.7
2017-Dec-08 04:00N 34°43' W 076°48'4 8.8
2017-Dec-08 03:30N 34°43' W 076°43'1 1.9
2017-Dec-08 03:00N 34°43' W 076°42'0 0.0
2017-Dec-08 02:30N 34°43' W 076°42'0 0.0
2017-Dec-08 02:00N 34°43' W 076°42'0 0.0
2017-Dec-08 01:30N 34°43' W 076°42'0 0.0
2017-Dec-08 01:00N 34°43' W 076°42'0 0.0
2017-Dec-08 00:30N 34°43' W 076°42'0 0.8
2017-Dec-08 00:01N 34°43' W 076°42'3 6.9
2017-Dec-07 23:30N 34°47' W 076°41'4 8.9
2017-Dec-07 23:00N 34°51' W 076°41'4 8.3
2017-Dec-07 22:30N 34°55' W 076°40'  

Dump ship's entire track history